Time;durP1;ratioP1;P1;durP2;ratioP2;P2;SDS_P1;SDS_P2;PMS_P1;PMS_P2;Temp;Humidity;BMP_temperature;BMP_pressure;BME280_temperature;BME280_humidity;BME280_pressure;Samples;Min_cycle;Max_cycle;Signal;HPM_P1;HPM_P2
2022/12/05 00:04:11;;;;;;;28.10;20.00;;;;;;;0.37;88.75;100494.77;210352;1294;142543;-72
2022/12/05 00:09:15;;;;;;;21.90;11.00;;;;;;;0.37;89.08;100487.08;210199;1287;140190;-71
2022/12/05 00:14:18;;;;;;;26.30;14.80;;;;;;;0.33;89.11;100474.65;210262;1294;140877;-67
2022/12/05 00:19:22;;;;;;;28.00;16.20;;;;;;;0.40;89.15;100477.50;209727;1294;139423;-67
2022/12/05 00:24:25;;;;;;;19.00;13.40;;;;;;;0.36;89.09;100476.19;207018;1294;139062;-67
2022/12/05 00:29:29;;;;;;;31.90;15.10;;;;;;;0.28;89.00;100475.36;209915;1295;153577;-67
2022/12/05 00:34:32;;;;;;;23.30;13.50;;;;;;;0.30;89.32;100473.63;210384;1288;142076;-68
2022/12/05 00:39:36;;;;;;;15.60;9.70;;;;;;;0.35;89.11;100475.91;210472;1294;140410;-67
2022/12/05 00:44:39;;;;;;;25.70;14.70;;;;;;;0.32;88.85;100467.83;210110;1294;223774;-67
2022/12/05 00:49:43;;;;;;;16.30;9.50;;;;;;;0.28;89.08;100471.16;210151;1295;141321;-66
2022/12/05 00:54:46;;;;;;;27.20;17.30;;;;;;;0.28;88.95;100464.57;210312;1294;139737;-68
2022/12/05 00:59:50;;;;;;;23.50;13.60;;;;;;;0.22;88.90;100463.27;210210;1295;141259;-69
2022/12/05 01:04:53;;;;;;;16.80;12.40;;;;;;;0.18;88.95;100463.80;210377;1291;140124;-68
2022/12/05 01:09:57;;;;;;;25.40;13.60;;;;;;;0.11;89.19;100463.41;208976;1294;139861;-67
2022/12/05 01:15:02;;;;;;;24.50;14.00;;;;;;;0.12;89.31;100472.73;207238;1294;140430;-67
2022/12/05 01:20:06;;;;;;;19.60;13.50;;;;;;;0.08;89.03;100475.47;210185;1301;140586;-65
2022/12/05 01:25:10;;;;;;;26.30;13.50;;;;;;;-0.01;89.22;100472.95;210248;1294;140787;-67
2022/12/05 01:30:14;;;;;;;25.40;13.30;;;;;;;-0.01;89.22;100471.56;210250;1284;140718;-66
2022/12/05 01:35:17;;;;;;;25.60;13.30;;;;;;;0.02;89.21;100463.80;210149;1295;246838;-67
2022/12/05 01:40:21;;;;;;;27.00;16.40;;;;;;;0.06;89.31;100459.86;210216;1294;139847;-65
2022/12/05 01:45:30;;;;;;;27.20;13.30;;;;;;;0.06;89.29;100460.23;210126;1295;139630;-65
2022/12/05 01:50:34;;;;;;;21.90;13.00;;;;;;;0.13;89.23;100445.54;210191;1297;141233;-67
2022/12/05 01:55:38;;;;;;;21.80;12.30;;;;;;;0.13;89.08;100442.07;210200;1295;139554;-66
2022/12/05 02:00:43;;;;;;;18.70;12.30;;;;;;;0.13;89.21;100442.23;210018;1296;141163;-68
2022/12/05 02:05:51;;;;;;;27.50;14.50;;;;;;;0.11;89.40;100444.04;209016;1296;140442;-68
2022/12/05 02:10:56;;;;;;;23.40;12.30;;;;;;;0.10;88.80;100444.84;209994;1297;140126;-68
2022/12/05 02:16:18;;;;;;;20.10;10.50;;;;;;;0.08;89.43;100461.45;210028;1297;141936;-66
2022/12/05 02:21:45;;;;;;;23.70;12.80;;;;;;;0.08;89.24;100452.20;210146;1298;141342;-66
2022/12/05 02:27:09;;;;;;;39.60;16.00;;;;;;;0.04;89.40;100436.34;210036;1297;139804;-66
2022/12/05 02:32:28;;;;;;;44.20;18.30;;;;;;;0.07;89.32;100423.40;210136;1294;140588;-66
2022/12/05 02:37:39;;;;;;;29.20;14.20;;;;;;;0.10;89.43;100417.42;210295;1303;140471;-67
2022/12/05 02:42:52;;;;;;;33.00;15.10;;;;;;;0.12;89.18;100413.52;210155;1296;140812;-68
2022/12/05 02:47:58;;;;;;;28.40;16.50;;;;;;;0.11;88.86;100401.77;209371;1297;139777;-65
2022/12/05 02:53:15;;;;;;;23.30;12.40;;;;;;;0.06;88.92;100403.48;209961;1297;139690;-69
2022/12/05 02:58:23;;;;;;;31.70;16.90;;;;;;;0.04;89.29;100396.52;210180;1297;140350;-69
2022/12/05 03:03:27;;;;;;;31.30;15.00;;;;;;;0.01;89.04;100398.30;209362;1294;150490;-71
2022/12/05 03:08:38;;;;;;;25.80;13.20;;;;;;;0.03;89.43;100393.61;210172;1290;140105;-69
2022/12/05 03:13:51;;;;;;;28.60;13.40;;;;;;;-0.01;89.18;100398.17;210086;1298;139777;-67
2022/12/05 03:19:02;;;;;;;22.60;13.10;;;;;;;-0.04;89.35;100403.17;210100;1298;140532;-67
2022/12/05 03:24:09;;;;;;;36.70;16.20;;;;;;;-0.03;89.53;100400.13;210189;1293;141129;-67
2022/12/05 03:29:22;;;;;;;34.60;16.30;;;;;;;-0.02;89.31;100405.29;210112;1288;140625;-66
2022/12/05 03:34:35;;;;;;;24.00;14.20;;;;;;;0.01;89.36;100404.34;209890;1297;140213;-68
2022/12/05 03:39:43;;;;;;;19.70;13.30;;;;;;;0.06;89.46;100398.55;210090;1298;150574;-67
2022/12/05 03:44:57;;;;;;;31.60;16.60;;;;;;;0.08;89.52;100403.08;209806;1300;142953;-67
2022/12/05 03:50:10;;;;;;;23.70;14.30;;;;;;;0.07;89.59;100411.95;210077;1298;139272;-67
2022/12/05 03:55:14;;;;;;;24.00;12.00;;;;;;;0.05;89.38;100418.40;209972;1302;140498;-67
2022/12/05 04:00:21;;;;;;;28.20;13.40;;;;;;;-0.01;89.55;100423.05;209936;1298;140498;-67
2022/12/05 04:05:24;;;;;;;26.00;16.50;;;;;;;-0.02;89.46;100425.20;209716;1301;140388;-67
2022/12/05 04:10:32;;;;;;;24.00;12.50;;;;;;;-0.01;89.38;100427.90;209539;1298;140021;-68
2022/12/05 04:17:02;;;;;;;;;;;;;;;0.01;89.45;100423.17;209306;1297;140354;-66
2022/12/05 04:26:30;;;;;;;29.30;14.20;;;;;;;-0.06;89.74;100417.76;208593;1298;139755;-66
2022/12/05 04:31:42;;;;;;;28.20;15.40;;;;;;;-0.06;89.74;100420.02;210075;1297;141002;-67
2022/12/05 04:36:53;;;;;;;44.10;18.60;;;;;;;-0.07;89.97;100420.95;209934;1297;140214;-67
2022/12/05 04:42:15;;;;;;;91.40;31.20;;;;;;;-0.01;90.34;100419.52;209921;1294;140764;-67
2022/12/05 04:47:24;;;;;;;38.40;16.50;;;;;;;0.04;89.90;100418.84;209888;1296;141196;-68
2022/12/05 04:52:28;;;;;;;33.90;14.50;;;;;;;0.09;89.85;100418.73;209058;1297;140240;-67
2022/12/05 04:57:49;;;;;;;31.10;15.40;;;;;;;0.14;89.78;100420.88;209424;1297;140448;-67
2022/12/05 05:03:37;;;;;;;34.60;18.10;;;;;;;0.19;89.49;100423.09;209945;1297;140010;-67
2022/12/05 05:08:51;;;;;;;36.00;16.20;;;;;;;0.17;89.89;100418.38;208883;1302;140045;-67
2022/12/05 05:13:55;;;;;;;38.10;18.60;;;;;;;0.27;89.90;100403.06;209481;1298;139941;-67
2022/12/05 05:18:59;;;;;;;27.80;14.30;;;;;;;0.27;89.49;100406.96;209825;1291;139859;-67
2022/12/05 05:24:03;;;;;;;21.70;12.90;;;;;;;0.28;89.63;100408.72;210007;1287;139835;-67
2022/12/05 05:29:08;;;;;;;29.90;14.80;;;;;;;0.25;89.52;100402.27;210054;1298;141096;-67
2022/12/05 05:34:14;;;;;;;22.30;11.20;;;;;;;0.24;89.74;100401.46;209875;1301;140206;-67
2022/12/05 05:39:19;;;;;;;22.50;12.30;;;;;;;0.32;90.04;100390.66;209763;1294;396326;-67
2022/12/05 05:44:23;;;;;;;34.80;17.60;;;;;;;0.38;89.58;100391.42;209877;1290;139140;-67
2022/12/05 05:49:26;;;;;;;37.30;18.50;;;;;;;0.36;89.57;100393.08;210110;1297;139997;-67
2022/12/05 05:54:29;;;;;;;28.10;16.00;;;;;;;0.28;89.65;100391.94;209849;1304;140023;-67
2022/12/05 05:59:33;;;;;;;27.70;16.40;;;;;;;0.35;89.40;100387.61;210087;1303;140322;-67
2022/12/05 06:04:37;;;;;;;22.60;12.50;;;;;;;0.34;89.10;100396.10;210004;1304;140704;-68
2022/12/05 06:09:41;;;;;;;34.60;17.60;;;;;;;0.33;89.73;100392.48;210028;1299;140716;-67
2022/12/05 06:14:47;;;;;;;28.80;14.90;;;;;;;0.34;89.63;100387.83;209957;1297;140218;-68
2022/12/05 06:19:51;;;;;;;26.80;14.80;;;;;;;0.36;89.62;100382.27;209986;1301;139787;-67
2022/12/05 06:24:54;;;;;;;36.80;16.00;;;;;;;0.35;89.37;100387.30;209935;1298;139791;-68
2022/12/05 06:29:57;;;;;;;28.10;18.20;;;;;;;0.31;89.46;100388.04;209799;1300;140334;-68
2022/12/05 06:35:06;;;;;;;27.70;15.80;;;;;;;0.31;89.61;100382.73;209877;1304;140447;-68
2022/12/05 06:40:14;;;;;;;34.70;17.00;;;;;;;0.34;89.65;100374.05;209917;1299;140436;-68
2022/12/05 06:45:18;;;;;;;;;;;;;;;0.40;89.44;100370.92;209827;1300;141005;-67
2022/12/05 06:50:22;;;;;;;31.30;16.20;;;;;;;0.48;89.61;100370.45;209499;1296;126722;-67
2022/12/05 06:55:26;;;;;;;25.90;13.60;;;;;;;0.46;89.47;100383.55;209959;1298;139383;-67
2022/12/05 07:05:52;;;;;;;23.00;12.70;;;;;;;0.35;89.25;100387.60;210152;1297;141172;-67
2022/12/05 07:10:56;;;;;;;31.20;14.70;;;;;;;0.39;89.65;100387.92;209029;1289;139663;-67
2022/12/05 07:16:00;;;;;;;20.40;11.50;;;;;;;0.37;89.55;100392.50;209997;1301;141103;-66
2022/12/05 07:21:06;;;;;;;28.70;13.80;;;;;;;0.39;89.42;100392.64;209576;1288;140502;-68
2022/12/05 07:26:20;;;;;;;30.90;12.50;;;;;;;0.41;89.47;100380.57;209892;1297;139970;-67
2022/12/05 07:31:25;;;;;;;26.80;13.20;;;;;;;0.46;89.58;100372.17;210100;1299;143126;-68
2022/12/05 07:36:29;;;;;;;33.90;14.60;;;;;;;0.43;89.11;100375.95;210036;1298;140208;-68
2022/12/05 07:41:33;;;;;;;156.00;41.20;;;;;;;0.50;88.99;100388.19;209912;1294;139243;-67
2022/12/05 07:46:38;;;;;;;72.70;26.00;;;;;;;0.53;89.24;100391.45;209832;1294;141016;-68
2022/12/05 07:51:41;;;;;;;41.10;17.50;;;;;;;0.52;89.17;100388.19;209863;1298;141272;-68
2022/12/05 07:56:45;;;;;;;38.80;17.30;;;;;;;0.46;88.99;100386.02;209957;1291;139821;-67
2022/12/05 08:01:50;;;;;;;30.20;13.40;;;;;;;0.47;89.25;100385.89;210080;1305;140602;-67
2022/12/05 08:06:53;;;;;;;23.90;13.90;;;;;;;0.49;89.31;100381.67;209830;1298;141021;-68
2022/12/05 08:11:57;;;;;;;30.30;14.60;;;;;;;0.55;89.33;100382.77;210010;1298;139616;-67
2022/12/05 08:17:00;;;;;;;31.00;15.20;;;;;;;0.57;89.12;100382.42;209174;1289;141457;-68
2022/12/05 08:22:04;;;;;;;29.40;14.90;;;;;;;0.63;89.10;100371.00;209984;1302;139526;-68
2022/12/05 08:27:08;;;;;;;35.50;14.60;;;;;;;0.67;89.28;100368.13;209791;1301;140409;-67
2022/12/05 08:32:11;;;;;;;34.40;14.60;;;;;;;0.75;89.20;100367.49;209951;1301;141170;-68
2022/12/05 08:37:15;;;;;;;29.70;14.60;;;;;;;0.81;89.34;100359.05;209977;1294;140508;-68
2022/12/05 08:42:19;;;;;;;24.40;13.60;;;;;;;0.91;88.94;100357.65;210116;1303;142021;-68
2022/12/05 08:47:26;;;;;;;20.80;12.30;;;;;;;0.89;89.21;100358.20;209902;1299;235072;-67
2022/12/05 08:52:29;;;;;;;26.00;13.30;;;;;;;0.94;89.40;100355.73;209814;1283;140460;-68
2022/12/05 08:57:32;;;;;;;26.20;13.60;;;;;;;1.00;89.34;100361.31;209850;1283;140873;-68
2022/12/05 09:02:36;;;;;;;31.50;16.00;;;;;;;1.05;89.03;100365.11;208166;1294;141307;-67
2022/12/05 09:07:39;;;;;;;23.10;12.80;;;;;;;1.04;89.21;100362.38;210078;1298;154630;-67
2022/12/05 09:12:43;;;;;;;27.00;17.20;;;;;;;1.12;89.09;100364.52;209097;1296;142204;-68
2022/12/05 09:17:47;;;;;;;20.30;12.50;;;;;;;1.11;89.10;100365.56;209934;1303;141580;-68
2022/12/05 09:22:51;;;;;;;20.70;10.80;;;;;;;1.13;88.77;100361.67;208980;1294;141538;-67
2022/12/05 09:27:56;;;;;;;24.20;14.40;;;;;;;1.07;88.94;100355.83;210005;1299;151429;-67
2022/12/05 09:33:00;;;;;;;25.40;12.00;;;;;;;1.09;89.01;100354.92;209748;1302;139801;-68
2022/12/05 09:38:04;;;;;;;31.20;13.50;;;;;;;1.14;88.97;100353.87;209997;1290;140565;-67
2022/12/05 09:43:33;;;;;;;23.90;12.50;;;;;;;1.13;88.69;100345.33;208385;1296;140595;-68
2022/12/05 09:48:39;;;;;;;28.90;13.60;;;;;;;1.05;88.95;100334.45;209837;1303;244590;-68
2022/12/05 09:53:44;;;;;;;18.00;12.10;;;;;;;1.07;89.12;100334.77;210014;1300;142336;-68
2022/12/05 09:58:49;;;;;;;22.60;12.90;;;;;;;1.07;89.04;100340.73;209926;1296;140424;-68
2022/12/05 10:04:41;;;;;;;23.00;12.80;;;;;;;1.13;88.92;100342.21;209766;1297;141661;-68
2022/12/05 10:10:14;;;;;;;39.10;16.90;;;;;;;1.20;89.31;100329.91;208686;1311;248093;-68
2022/12/05 10:15:49;;;;;;;74.50;27.10;;;;;;;1.37;89.12;100324.61;209754;1299;140172;-68
2022/12/05 10:21:08;;;;;;;126.10;34.80;;;;;;;1.43;88.86;100319.73;208502;1293;141168;-67
2022/12/05 10:26:15;;;;;;;30.30;16.20;;;;;;;1.44;89.00;100322.46;208506;1299;141729;-67
2022/12/05 10:31:26;;;;;;;27.70;14.90;;;;;;;1.44;88.96;100317.70;209840;1299;139664;-67
2022/12/05 10:36:30;;;;;;;26.90;15.00;;;;;;;1.44;88.86;100312.71;209543;1306;141120;-68
2022/12/05 10:41:34;;;;;;;27.90;14.60;;;;;;;1.44;89.05;100300.79;209597;1284;140642;-68
2022/12/05 10:46:38;;;;;;;28.30;16.00;;;;;;;1.44;88.97;100292.24;209617;1300;139847;-67
2022/12/05 10:51:42;;;;;;;31.90;16.00;;;;;;;1.43;88.82;100295.08;209487;1297;140499;-67
2022/12/05 10:56:52;;;;;;;25.70;14.00;;;;;;;1.49;88.89;100287.83;209616;1283;140353;-68
2022/12/05 11:01:57;;;;;;;27.20;16.80;;;;;;;1.56;89.09;100285.84;208505;1296;139391;-67
2022/12/05 11:07:04;;;;;;;26.30;16.10;;;;;;;1.67;88.68;100285.50;208839;1299;140908;-67
2022/12/05 11:12:08;;;;;;;32.90;17.10;;;;;;;1.68;89.00;100282.05;209277;1298;139988;-67
2022/12/05 11:17:24;;;;;;;25.40;15.00;;;;;;;1.78;88.95;100276.86;208755;1296;140520;-68
2022/12/05 11:22:33;;;;;;;27.40;12.20;;;;;;;1.77;88.74;100273.12;209673;1300;140693;-68
2022/12/05 11:27:37;;;;;;;27.60;16.60;;;;;;;1.80;88.91;100264.15;206815;1291;141358;-66
2022/12/05 11:32:40;;;;;;;37.60;17.80;;;;;;;1.80;88.69;100267.99;206510;1296;138846;-68
2022/12/05 11:37:52;;;;;;;32.70;16.60;;;;;;;1.92;88.74;100269.88;206831;1288;140131;-68
2022/12/05 11:43:18;;;;;;;24.50;13.40;;;;;;;2.02;89.22;100256.11;206722;1291;140196;-67
2022/12/05 11:48:34;;;;;;;34.30;19.30;;;;;;;2.11;88.79;100255.64;207462;1291;139499;-68
2022/12/05 11:54:32;;;;;;;33.20;18.80;;;;;;;2.17;89.08;100250.45;210092;1298;139789;-68
2022/12/05 12:00:18;;;;;;;43.50;20.20;;;;;;;2.32;88.84;100245.91;209433;1300;243865;-69
2022/12/05 12:05:53;;;;;;;32.50;18.00;;;;;;;2.43;88.48;100239.83;209841;1296;140378;-68
2022/12/05 12:11:28;;;;;;;42.30;19.80;;;;;;;2.50;88.33;100240.25;209942;1303;139557;-68
2022/12/05 12:16:42;;;;;;;39.00;23.10;;;;;;;2.44;87.69;100239.39;209892;1297;139789;-68
2022/12/05 12:21:54;;;;;;;26.60;17.40;;;;;;;2.37;87.81;100231.44;209996;1297;140566;-68
2022/12/05 12:27:10;;;;;;;37.40;21.00;;;;;;;2.37;87.92;100222.45;209658;1296;140355;-67
2022/12/05 12:32:29;;;;;;;34.40;17.70;;;;;;;2.31;87.37;100233.48;209833;1298;140630;-68
2022/12/05 12:37:33;;;;;;;34.20;20.10;;;;;;;2.21;87.69;100219.70;210123;1297;139711;-68
2022/12/05 12:43:06;;;;;;;32.70;18.90;;;;;;;2.16;87.54;100221.46;209906;1297;139805;-68
2022/12/05 12:48:45;;;;;;;40.10;21.90;;;;;;;2.17;87.90;100211.03;210006;1297;140786;-67
2022/12/05 12:54:13;;;;;;;31.90;20.40;;;;;;;2.21;87.92;100207.60;209794;1297;140366;-69
2022/12/05 12:59:26;;;;;;;40.40;21.40;;;;;;;2.24;87.82;100205.00;209849;1297;140401;-71
2022/12/05 13:04:47;;;;;;;39.10;21.40;;;;;;;2.35;87.99;100205.83;210042;1297;140747;-70
2022/12/05 13:09:58;;;;;;;39.20;19.30;;;;;;;2.36;87.79;100196.29;208671;1298;139666;-69
2022/12/05 13:15:30;;;;;;;49.10;26.70;;;;;;;2.30;87.56;100197.74;208270;1290;142718;-68
2022/12/05 13:20:35;;;;;;;36.90;18.80;;;;;;;2.24;87.81;100197.04;209965;1305;140271;-69
2022/12/05 13:25:41;;;;;;;45.40;22.20;;;;;;;2.21;87.54;100196.68;206888;1296;140256;-67
2022/12/05 13:31:03;;;;;;;43.90;21.10;;;;;;;2.12;88.06;100201.37;209954;1305;142156;-68
2022/12/05 13:47:06;;;;;;;48.80;22.50;;;;;;;2.14;88.30;100205.35;210793;1297;125395;-67
2022/12/05 13:52:19;;;;;;;49.50;25.00;;;;;;;2.17;87.66;100204.12;209982;1296;140139;-68
2022/12/05 13:57:38;;;;;;;46.50;22.00;;;;;;;2.11;87.77;100205.05;209918;1297;139765;-68
2022/12/05 14:02:42;;;;;;;52.30;26.40;;;;;;;2.06;87.72;100197.30;209949;1297;139672;-68
2022/12/05 14:07:48;;;;;;;44.10;23.30;;;;;;;1.98;87.87;100191.20;210161;1297;140748;-68
2022/12/05 14:13:22;;;;;;;50.10;24.30;;;;;;;1.98;88.13;100190.48;209902;1296;139350;-68
2022/12/05 14:18:49;;;;;;;49.30;23.80;;;;;;;1.94;87.84;100192.65;208204;1282;140009;-70
2022/12/05 14:23:53;;;;;;;37.40;20.10;;;;;;;1.90;88.43;100195.88;209636;1298;139969;-71
2022/12/05 14:29:15;;;;;;;48.80;22.90;;;;;;;1.90;88.05;100193.80;208169;1288;141003;-69
2022/12/05 14:34:27;;;;;;;44.10;24.10;;;;;;;1.87;88.31;100191.88;209143;1290;140391;-65
2022/12/05 14:39:45;;;;;;;44.30;22.60;;;;;;;1.84;88.51;100187.48;209826;1297;140848;-69
2022/12/05 14:44:53;;;;;;;55.00;24.60;;;;;;;1.89;88.28;100186.98;209935;1297;140909;-69
2022/12/05 14:50:34;;;;;;;56.60;27.00;;;;;;;1.91;88.48;100181.58;210068;1297;142037;-69
2022/12/05 14:55:39;;;;;;;103.10;45.40;;;;;;;1.95;88.30;100179.08;207875;1303;141780;-66
2022/12/05 15:00:45;;;;;;;81.20;34.70;;;;;;;1.94;88.44;100171.79;209909;1298;142344;-71
2022/12/05 15:05:52;;;;;;;50.80;27.00;;;;;;;1.95;88.46;100170.59;210044;1297;142607;-69
2022/12/05 15:11:03;;;;;;;56.20;28.30;;;;;;;1.94;88.35;100170.47;209109;1290;140253;-72
2022/12/05 15:16:15;;;;;;;50.10;25.10;;;;;;;1.92;88.30;100169.77;209955;1294;141691;-69
2022/12/05 15:21:32;;;;;;;46.60;24.20;;;;;;;1.93;88.78;100171.89;210056;1297;139144;-69
2022/12/05 15:26:52;;;;;;;50.50;23.40;;;;;;;1.99;88.44;100169.90;209924;1289;140282;-70
2022/12/05 15:32:09;;;;;;;45.70;23.90;;;;;;;2.02;88.60;100169.04;210205;1297;141983;-63
2022/12/05 15:37:16;;;;;;;57.60;28.40;;;;;;;2.06;88.62;100168.05;210132;1293;246561;-65
2022/12/05 15:42:26;;;;;;;47.70;22.70;;;;;;;2.09;88.55;100157.79;210073;1293;140222;-65
2022/12/05 15:47:32;;;;;;;59.20;31.10;;;;;;;2.16;88.43;100157.11;209977;1290;139751;-68
2022/12/05 15:52:52;;;;;;;55.30;26.70;;;;;;;2.17;88.57;100155.92;210022;1297;140266;-69
2022/12/05 15:58:24;;;;;;;57.60;27.00;;;;;;;2.23;88.61;100154.27;209920;1301;140399;-69
2022/12/05 16:03:38;;;;;;;57.80;26.90;;;;;;;2.17;88.34;100154.34;209934;1297;140977;-68
2022/12/05 16:08:48;;;;;;;41.40;26.50;;;;;;;2.19;88.30;100154.67;209997;1297;140405;-69
2022/12/05 16:14:00;;;;;;;56.90;28.50;;;;;;;2.17;88.31;100146.69;210065;1297;140614;-69
2022/12/05 16:19:13;;;;;;;61.90;27.50;;;;;;;2.21;88.42;100147.20;209907;1295;140571;-69
2022/12/05 16:24:21;;;;;;;59.30;27.20;;;;;;;2.27;88.60;100140.73;209967;1291;140520;-68
2022/12/05 16:29:30;;;;;;;48.80;26.80;;;;;;;2.32;88.53;100141.28;209926;1297;139641;-68
2022/12/05 16:34:35;;;;;;;53.70;27.70;;;;;;;2.33;88.30;100145.39;210010;1297;140725;-69
2022/12/05 16:39:44;;;;;;;46.10;25.60;;;;;;;2.31;88.55;100135.89;209912;1297;140695;-69
2022/12/05 16:45:02;;;;;;;43.90;23.20;;;;;;;2.34;88.28;100137.48;209279;1288;140632;-69
2022/12/05 16:50:29;;;;;;;62.60;27.60;;;;;;;2.34;88.42;100131.93;206848;1293;140032;-69
2022/12/05 16:55:37;;;;;;;48.40;27.30;;;;;;;2.38;88.34;100129.81;210238;1296;142628;-70
2022/12/05 17:00:41;;;;;;;53.00;30.40;;;;;;;2.35;88.57;100128.27;209955;1296;140608;-69
2022/12/05 17:05:46;;;;;;;49.30;27.60;;;;;;;2.39;88.53;100131.23;209959;1297;141000;-69
2022/12/05 17:10:50;;;;;;;44.20;23.60;;;;;;;2.46;88.22;100129.89;209115;1287;140538;-69
2022/12/05 17:15:54;;;;;;;41.40;24.90;;;;;;;2.48;88.35;100130.23;206839;1281;140499;-68
2022/12/05 17:21:00;;;;;;;58.30;25.10;;;;;;;2.49;88.26;100136.25;209860;1281;140531;-69
2022/12/05 17:26:03;;;;;;;53.80;30.80;;;;;;;2.53;88.19;100133.98;209979;1296;140845;-69
2022/12/05 17:31:12;;;;;;;47.40;27.60;;;;;;;2.54;88.31;100128.10;210006;1297;142327;-68
2022/12/05 17:36:16;;;;;;;48.00;26.70;;;;;;;2.58;88.41;100126.20;209816;1304;341414;-67
2022/12/05 17:41:23;;;;;;;56.00;33.40;;;;;;;2.64;88.15;100131.05;209994;1283;141247;-66
2022/12/05 17:46:29;;;;;;;58.00;30.10;;;;;;;2.67;88.11;100125.77;209910;1295;246507;-66
2022/12/05 17:51:33;;;;;;;45.40;25.30;;;;;;;2.64;88.14;100127.79;209809;1297;140056;-67
2022/12/05 17:56:57;;;;;;;44.70;25.70;;;;;;;2.70;88.10;100132.47;209932;1298;220885;-67
2022/12/05 18:02:00;;;;;;;56.50;30.60;;;;;;;2.78;88.14;100134.17;210058;1297;142577;-69
2022/12/05 18:07:05;;;;;;;49.50;27.50;;;;;;;2.86;88.33;100138.49;209979;1303;140330;-68
2022/12/05 18:12:08;;;;;;;54.30;31.00;;;;;;;2.90;88.11;100139.07;210110;1298;140909;-67
2022/12/05 18:17:12;;;;;;;40.60;25.00;;;;;;;2.97;87.87;100136.70;209921;1305;140670;-68
2022/12/05 18:22:16;;;;;;;50.60;27.60;;;;;;;3.01;88.03;100133.89;209940;1297;139677;-68
2022/12/05 18:27:24;;;;;;;55.60;27.80;;;;;;;3.02;87.92;100134.52;209909;1297;161876;-68
2022/12/05 18:32:28;;;;;;;47.70;29.50;;;;;;;3.02;87.52;100135.77;209796;1287;140610;-68
2022/12/05 18:37:35;;;;;;;48.60;27.30;;;;;;;2.97;87.49;100135.23;207857;1293;140360;-68
2022/12/05 18:42:39;;;;;;;37.40;22.90;;;;;;;2.92;87.46;100133.19;209829;1297;139345;-68
2022/12/05 18:47:43;;;;;;;58.90;30.70;;;;;;;2.94;87.73;100134.41;208898;1288;142007;-68
2022/12/05 18:52:47;;;;;;;56.00;28.60;;;;;;;2.96;87.92;100135.45;208377;1288;142133;-68
2022/12/05 18:57:51;;;;;;;61.40;33.60;;;;;;;2.98;88.03;100131.68;210181;1295;140372;-68
2022/12/05 19:02:55;;;;;;;62.60;33.10;;;;;;;3.05;87.62;100123.78;209933;1296;140036;-68
2022/12/05 19:07:59;;;;;;;62.40;34.80;;;;;;;3.11;87.87;100127.88;210046;1298;140198;-66
2022/12/05 19:13:02;;;;;;;67.40;38.00;;;;;;;3.11;87.66;100128.23;209758;1298;139649;-66
2022/12/05 19:18:06;;;;;;;58.20;31.80;;;;;;;3.14;87.60;100128.96;209860;1289;139539;-67
2022/12/05 19:23:11;;;;;;;62.30;34.90;;;;;;;3.18;87.53;100127.27;209921;1290;141311;-66
2022/12/05 19:28:16;;;;;;;55.10;30.30;;;;;;;3.16;87.61;100121.88;207011;1289;139520;-65
2022/12/05 19:33:37;;;;;;;56.20;32.00;;;;;;;3.12;87.66;100124.48;209955;1297;139773;-66
2022/12/05 19:38:50;;;;;;;56.30;34.60;;;;;;;3.14;87.68;100119.82;209987;1305;247725;-66
2022/12/05 19:43:59;;;;;;;54.00;27.60;;;;;;;3.13;87.62;100113.44;210114;1305;139520;-67
2022/12/05 19:49:07;;;;;;;65.20;36.40;;;;;;;3.12;87.44;100112.81;209829;1298;141458;-66
2022/12/05 19:54:13;;;;;;;70.40;37.50;;;;;;;3.16;87.48;100105.64;209927;1297;143012;-67
2022/12/05 19:59:17;;;;;;;58.00;36.10;;;;;;;3.20;87.56;100099.13;210088;1298;139466;-69
2022/12/05 20:04:21;;;;;;;72.00;34.90;;;;;;;3.22;87.57;100098.16;209859;1297;140053;-68
2022/12/05 20:09:25;;;;;;;69.20;37.00;;;;;;;3.32;87.58;100097.00;210035;1297;141198;-68
2022/12/05 20:14:29;;;;;;;64.60;35.30;;;;;;;3.36;87.82;100093.60;210139;1298;140832;-68
2022/12/05 20:19:34;;;;;;;71.10;35.50;;;;;;;3.40;87.54;100090.77;210068;1297;141306;-68
2022/12/05 20:24:38;;;;;;;66.60;35.90;;;;;;;3.46;87.39;100090.29;209800;1300;141217;-68
2022/12/05 20:29:42;;;;;;;64.90;34.60;;;;;;;3.42;87.14;100086.17;209866;1297;141496;-69
2022/12/05 20:34:48;;;;;;;71.80;36.20;;;;;;;3.41;87.30;100087.37;210081;1297;139659;-68
2022/12/05 20:39:52;;;;;;;57.90;32.90;;;;;;;3.41;87.44;100087.33;210039;1297;140220;-68
2022/12/05 20:44:57;;;;;;;69.50;35.00;;;;;;;3.41;87.41;100085.59;209878;1297;222884;-69
2022/12/05 20:50:01;;;;;;;56.20;35.30;;;;;;;3.51;87.33;100085.46;206566;1288;140714;-68
2022/12/05 20:55:05;;;;;;;66.80;33.90;;;;;;;3.51;87.22;100083.35;206830;1288;140514;-67
2022/12/05 21:00:10;;;;;;;61.70;34.80;;;;;;;3.47;87.23;100073.24;209972;1297;139780;-67
2022/12/05 21:05:14;;;;;;;61.70;37.40;;;;;;;3.55;87.61;100068.02;209732;1305;140279;-68
2022/12/05 21:10:17;;;;;;;72.60;37.70;;;;;;;3.62;87.61;100064.42;208234;1281;141390;-66
2022/12/05 21:15:22;;;;;;;63.40;33.10;;;;;;;3.67;87.76;100059.66;206756;1291;141920;-67
2022/12/05 21:20:26;;;;;;;62.50;31.00;;;;;;;3.69;87.58;100061.59;209805;1298;140397;-67
2022/12/05 21:25:31;;;;;;;56.40;35.10;;;;;;;3.80;87.51;100065.66;209802;1288;140974;-67
2022/12/05 21:30:35;;;;;;;68.40;37.50;;;;;;;3.79;87.33;100064.55;209862;1289;141411;-68
2022/12/05 21:35:39;;;;;;;65.80;36.20;;;;;;;3.78;87.59;100068.33;209888;1297;141086;-67
2022/12/05 21:40:42;;;;;;;53.40;30.70;;;;;;;3.82;87.70;100067.69;209400;1287;140182;-68
2022/12/05 21:45:54;;;;;;;70.80;37.50;;;;;;;3.90;87.35;100067.20;210040;1285;139855;-68
2022/12/05 21:50:58;;;;;;;55.70;34.00;;;;;;;3.96;87.57;100069.48;210038;1297;141991;-68
2022/12/05 21:56:14;;;;;;;59.60;33.70;;;;;;;3.99;87.44;100073.51;210224;1295;140483;-68
2022/12/05 22:01:22;;;;;;;55.10;33.60;;;;;;;3.98;87.26;100077.91;210070;1295;142196;-68
2022/12/05 22:06:32;;;;;;;57.90;32.80;;;;;;;4.02;87.07;100075.45;210164;1301;143915;-68
2022/12/05 22:11:36;;;;;;;55.90;32.40;;;;;;;4.06;87.08;100068.11;210083;1297;141428;-68
2022/12/05 22:16:40;;;;;;;55.00;34.00;;;;;;;4.05;87.17;100068.75;210015;1297;140853;-68
2022/12/05 22:21:44;;;;;;;55.80;30.50;;;;;;;4.05;87.09;100069.44;210122;1298;139867;-67
2022/12/05 22:26:47;;;;;;;58.00;33.60;;;;;;;4.15;86.96;100065.77;209852;1297;140280;-67
2022/12/05 22:31:51;;;;;;;57.00;35.30;;;;;;;4.15;87.01;100063.16;209513;1289;141699;-68
2022/12/05 22:36:55;;;;;;;64.40;35.00;;;;;;;4.09;86.90;100060.52;209668;1294;139645;-68
2022/12/05 22:41:58;;;;;;;60.10;36.60;;;;;;;4.11;86.91;100053.08;206840;1303;140704;-67
2022/12/05 22:47:02;;;;;;;65.50;35.20;;;;;;;4.18;87.17;100041.97;210178;1297;140783;-68
2022/12/05 22:52:07;;;;;;;57.10;32.70;;;;;;;4.23;87.38;100040.48;207535;1288;139454;-69
2022/12/05 22:57:11;;;;;;;59.80;35.60;;;;;;;4.27;87.26;100035.13;206713;1302;140419;-68
2022/12/05 23:02:14;;;;;;;57.00;30.00;;;;;;;4.21;86.71;100035.84;208811;1298;139737;-65
2022/12/05 23:07:18;;;;;;;57.50;34.70;;;;;;;4.20;86.78;100030.05;210177;1297;141870;-69
2022/12/05 23:12:22;;;;;;;53.30;32.60;;;;;;;4.21;87.03;100022.31;209252;1288;140743;-65
2022/12/05 23:17:25;;;;;;;63.80;32.10;;;;;;;4.21;87.02;100026.34;210083;1299;139694;-69
2022/12/05 23:22:29;;;;;;;53.10;28.50;;;;;;;4.22;87.18;100029.06;209918;1304;142310;-68
2022/12/05 23:27:33;;;;;;;53.90;30.70;;;;;;;4.29;86.89;100024.62;209243;1295;141482;-63
2022/12/05 23:32:37;;;;;;;60.40;34.50;;;;;;;4.24;86.35;100020.36;209185;1303;140224;-68